createdAt,value
2019-04-11T00:01:58.466Z,100455.91
2019-04-11T00:04:30.294Z,100453.99
2019-04-11T00:07:01.679Z,100457.37
2019-04-11T00:09:32.995Z,100458.50
2019-04-11T00:12:04.876Z,100456.55
2019-04-11T00:14:36.304Z,100462.12
2019-04-11T00:17:07.859Z,100462.88
2019-04-11T00:19:39.895Z,100459.79
2019-04-11T00:22:11.214Z,100464.52
2019-04-11T00:24:43.035Z,100463.45
2019-04-11T00:27:14.957Z,100466.72
2019-04-11T00:29:46.986Z,100462.19
2019-04-11T00:32:19.166Z,100468.14
2019-04-11T00:34:51.169Z,100473.38
2019-04-11T00:37:23.197Z,100470.25
2019-04-11T00:39:54.714Z,100469.21
2019-04-11T00:42:26.288Z,100472.62
2019-04-11T00:44:59.021Z,100474.36
2019-04-11T00:47:31.189Z,100476.41
2019-04-11T00:50:04.044Z,100482.39
2019-04-11T00:52:35.756Z,100480.62
2019-04-11T00:55:07.256Z,100482.25
2019-04-11T00:57:39.632Z,100479.53
2019-04-11T01:00:13.110Z,100480.80
2019-04-11T01:02:45.477Z,100485.14
2019-04-11T01:05:18.293Z,100481.44
2019-04-11T01:07:49.679Z,100479.13
2019-04-11T01:10:22.298Z,100479.03
2019-04-11T01:12:53.663Z,100473.22
2019-04-11T01:15:25.085Z,100472.45
2019-04-11T01:17:58.024Z,100471.41
2019-04-11T01:20:31.331Z,100471.36
2019-04-11T01:23:02.886Z,100469.94
2019-04-11T01:25:34.777Z,100475.08
2019-04-11T01:28:06.771Z,100479.00
2019-04-11T01:30:49.268Z,100479.84
2019-04-11T01:33:20.779Z,100477.59
2019-04-11T01:35:53.386Z,100481.05
2019-04-11T01:38:25.552Z,100482.30
2019-04-11T01:40:58.157Z,100485.29
2019-04-11T01:43:30.678Z,100489.11
2019-04-11T01:46:02.275Z,100488.80
2019-04-11T01:48:35.435Z,100487.80
2019-04-11T01:51:07.533Z,100493.77
2019-04-11T01:53:40.551Z,100496.17
2019-04-11T01:56:12.786Z,100496.02
2019-04-11T01:58:44.221Z,100485.91
2019-04-11T02:01:26.239Z,100492.29
2019-04-11T02:03:59.407Z,100495.69
2019-04-11T02:06:32.002Z,100493.44
2019-04-11T02:09:06.033Z,100500.39
2019-04-11T02:11:37.416Z,100502.44
2019-04-11T02:14:15.549Z,100501.07
2019-04-11T02:16:43.213Z,100503.58
2019-04-11T02:19:14.664Z,100503.52
2019-04-11T02:21:46.247Z,100506.92
2019-04-11T02:24:23.737Z,100508.70
2019-04-11T02:27:06.531Z,100504.77
2019-04-11T02:29:37.943Z,100509.59
2019-04-11T02:32:09.975Z,100512.16
2019-04-11T02:34:43.871Z,100510.98
2019-04-11T02:37:17.215Z,100517.94
2019-04-11T02:39:49.392Z,100515.59
2019-04-11T02:42:23.162Z,100518.98
2019-04-11T02:45:09.170Z,100514.11
2019-04-11T02:47:32.413Z,100519.48
2019-04-11T02:50:03.679Z,100525.78
2019-04-11T02:52:35.587Z,100524.78
2019-04-11T02:55:10.310Z,100527.16
2019-04-11T02:57:42.837Z,100526.03
2019-04-11T03:00:15.874Z,100527.64
2019-04-11T03:02:48.531Z,100532.03
2019-04-11T03:05:21.542Z,100535.36
2019-04-11T03:07:54.084Z,100534.00
2019-04-11T03:10:27.085Z,100530.97
2019-04-11T03:12:59.717Z,100535.78
2019-04-11T03:15:48.731Z,100526.09
2019-04-11T03:18:09.472Z,100533.05
2019-04-11T03:20:47.798Z,100537.86
2019-04-11T03:23:16.105Z,100539.28
2019-04-11T03:25:46.933Z,100542.66
2019-04-11T03:28:23.053Z,100545.45
2019-04-11T03:31:21.958Z,100547.41
2019-04-11T03:34:15.731Z,100543.01
2019-04-11T03:38:52.937Z,100547.52
2019-04-11T03:41:24.993Z,100550.83
2019-04-11T03:43:51.034Z,100551.78
2019-04-11T03:46:30.954Z,100557.78
2019-04-11T03:49:00.537Z,100555.23
2019-04-11T03:51:21.128Z,100561.28
2019-04-11T03:53:53.707Z,100564.19
2019-04-11T03:56:26.476Z,100560.49
2019-04-11T03:58:58.554Z,100561.32
2019-04-11T04:01:34.062Z,100564.98
2019-04-11T04:04:06.646Z,100564.98
2019-04-11T04:06:39.511Z,100564.64
2019-04-11T04:09:16.343Z,100566.45
2019-04-11T04:11:49.406Z,100570.05
2019-04-11T04:14:30.429Z,100574.03
2019-04-11T04:17:11.103Z,100577.75
2019-04-11T04:20:02.301Z,100585.87
2019-04-11T04:22:35.682Z,100585.74
2019-04-11T04:25:08.341Z,100587.88
2019-04-11T04:27:41.026Z,100590.90
2019-04-11T04:30:13.842Z,100590.90
2019-04-11T04:32:47.134Z,100586.37
2019-04-11T04:35:21.518Z,100595.38
2019-04-11T04:37:52.208Z,100598.88
2019-04-11T04:40:40.980Z,100594.80
2019-04-11T04:42:59.119Z,100602.98
2019-04-11T04:45:54.625Z,100602.02
2019-04-11T04:48:10.754Z,100608.41
2019-04-11T04:50:39.391Z,100609.23
2019-04-11T04:53:11.250Z,100617.89
2019-04-11T04:55:43.570Z,100624.83
2019-04-11T04:58:15.918Z,100619.41
2019-04-11T05:00:51.086Z,100627.16
2019-04-11T05:03:22.353Z,100632.05
2019-04-11T05:05:55.238Z,100624.08
2019-04-11T05:08:27.230Z,100633.69
2019-04-11T05:10:58.858Z,100631.91
2019-04-11T05:13:30.354Z,100631.63
2019-04-11T05:16:09.618Z,100636.84
2019-04-11T05:18:34.919Z,100635.13
2019-04-11T05:21:06.384Z,100635.95
2019-04-11T05:23:37.586Z,100643.38
2019-04-11T05:26:08.970Z,100642.55
2019-04-11T05:28:41.550Z,100643.92
2019-04-11T05:31:12.998Z,100641.03
2019-04-11T05:33:45.538Z,100651.20
2019-04-11T05:36:17.140Z,100654.78
2019-04-11T05:38:48.692Z,100658.34
2019-04-11T05:41:21.634Z,100662.43
2019-04-11T05:43:53.620Z,100666.00
2019-04-11T05:46:33.567Z,100667.58
2019-04-11T05:49:01.087Z,100677.75
2019-04-11T05:51:39.956Z,100671.77
2019-04-11T05:54:07.757Z,100675.41
2019-04-11T05:56:39.545Z,100675.19
2019-04-11T05:59:17.218Z,100674.09
2019-04-11T06:02:05.239Z,100673.45
2019-04-11T06:04:34.415Z,100677.23
2019-04-11T06:07:13.245Z,100679.21
2019-04-11T06:09:48.609Z,100678.09
2019-04-11T06:12:27.637Z,100679.25
2019-04-11T06:15:06.296Z,100687.83
2019-04-11T06:17:40.723Z,100683.21
2019-04-11T06:20:14.439Z,100682.28
2019-04-11T06:22:47.736Z,100691.75
2019-04-11T06:25:23.678Z,100694.33
2019-04-11T06:27:58.289Z,100688.05
2019-04-11T06:30:50.638Z,100682.17
2019-04-11T06:33:24.726Z,100688.89
2019-04-11T06:35:58.337Z,100690.41
2019-04-11T06:38:49.672Z,100696.45
2019-04-11T06:41:41.131Z,100698.00
2019-04-11T06:44:12.310Z,100700.62
2019-04-11T06:47:02.644Z,100703.95
2019-04-11T06:49:36.305Z,100712.75
2019-04-11T06:52:14.874Z,100713.58
2019-04-11T06:54:52.325Z,100714.39
2019-04-11T06:57:27.844Z,100717.00
2019-04-11T07:00:01.081Z,100712.09
2019-04-11T07:02:32.466Z,100710.28
2019-04-11T07:05:09.090Z,100713.77
2019-04-11T07:07:43.168Z,100710.00
2019-04-11T07:10:15.473Z,100705.81
2019-04-11T07:12:49.377Z,100704.51
2019-04-11T07:15:23.076Z,100711.05
2019-04-11T07:18:12.251Z,100707.84
2019-04-11T07:20:52.485Z,100708.01
2019-04-11T07:23:44.132Z,100717.19
2019-04-11T07:26:25.522Z,100710.88
2019-04-11T07:29:04.565Z,100711.66
2019-04-11T07:31:39.716Z,100713.58
2019-04-11T07:34:32.532Z,100713.64
2019-04-11T07:37:21.329Z,100717.22
2019-04-11T07:40:03.584Z,100715.39
2019-04-11T07:42:41.095Z,100715.12
2019-04-11T07:45:30.375Z,100724.03
2019-04-11T07:48:15.639Z,100713.84
2019-04-11T07:50:48.667Z,100709.67
2019-04-11T07:53:21.764Z,100714.34
2019-04-11T07:55:53.572Z,100716.34
2019-04-11T07:58:26.722Z,100717.66
2019-04-11T08:01:06.739Z,100725.00
2019-04-11T08:03:53.605Z,100723.40
2019-04-11T08:06:28.765Z,100730.57
2019-04-11T08:09:18.004Z,100724.13
2019-04-11T08:11:51.906Z,100725.27
2019-04-11T08:14:40.856Z,100736.13
2019-04-11T08:17:28.133Z,100722.80
2019-04-11T08:19:55.377Z,100729.67
2019-04-11T08:22:37.422Z,100727.20
2019-04-11T08:25:15.384Z,100723.41
2019-04-11T08:28:01.297Z,100722.80
2019-04-11T08:30:49.390Z,100723.27
2019-04-11T08:33:22.471Z,100724.66
2019-04-11T08:36:11.848Z,100725.37
2019-04-11T08:38:43.173Z,100722.65
2019-04-11T08:41:16.240Z,100721.26
2019-04-11T08:43:47.751Z,100726.38
2019-04-11T08:46:20.862Z,100716.20
2019-04-11T08:48:59.686Z,100714.58
2019-04-11T08:51:33.628Z,100717.50
2019-04-11T08:54:07.497Z,100720.67
2019-04-11T08:56:40.488Z,100720.14
2019-04-11T08:59:35.871Z,100715.06
2019-04-11T09:02:08.716Z,100721.81
2019-04-11T09:05:07.284Z,100725.06
2019-04-11T09:07:35.945Z,100722.95
2019-04-11T09:10:22.050Z,100723.22
2019-04-11T09:13:00.757Z,100719.50
2019-04-11T09:15:35.063Z,100718.41
2019-04-11T09:18:10.777Z,100725.95
2019-04-11T09:20:43.443Z,100717.08
2019-04-11T09:23:14.955Z,100723.78
2019-04-11T09:25:48.832Z,100726.61
2019-04-11T09:28:21.767Z,100727.95
2019-04-11T09:30:58.268Z,100723.78
2019-04-11T09:33:47.538Z,100721.92
2019-04-11T09:36:36.949Z,100722.27
2019-04-11T09:39:21.901Z,100723.01
2019-04-11T09:41:52.903Z,100718.69
2019-04-11T09:44:41.992Z,100727.83
2019-04-11T09:47:28.574Z,100729.53
2019-04-11T09:50:04.378Z,100732.86
2019-04-11T09:52:37.249Z,100728.46
2019-04-11T09:55:17.089Z,100734.75
2019-04-11T09:57:50.394Z,100730.60
2019-04-11T10:00:30.414Z,100730.86
2019-04-11T10:03:06.651Z,100718.63
2019-04-11T10:05:40.650Z,100727.48
2019-04-11T10:08:12.748Z,100733.20
2019-04-11T10:11:02.205Z,100727.19
2019-04-11T10:13:51.692Z,100727.69
2019-04-11T10:16:26.307Z,100731.80
2019-04-11T10:19:05.576Z,100727.45
2019-04-11T10:21:39.545Z,100718.39
2019-04-11T10:24:26.388Z,100725.58
2019-04-11T10:27:00.546Z,100724.38
2019-04-11T10:29:36.568Z,100715.26
2019-04-11T10:32:10.744Z,100724.53
2019-04-11T10:34:59.684Z,100723.53
2019-04-11T10:37:31.763Z,100727.42
2019-04-11T10:40:21.587Z,100725.19
2019-04-11T10:42:53.922Z,100723.97
2019-04-11T10:45:27.170Z,100718.58
2019-04-11T10:47:58.557Z,100727.33
2019-04-11T10:50:32.331Z,100719.19
2019-04-11T10:53:03.680Z,100716.78
2019-04-11T10:55:40.275Z,100725.98
2019-04-11T10:58:16.283Z,100720.26
2019-04-11T11:00:51.717Z,100721.61
2019-04-11T11:03:30.729Z,100726.51
2019-04-11T11:06:05.331Z,100719.39
2019-04-11T11:08:47.905Z,100731.06
2019-04-11T11:11:30.457Z,100732.00
2019-04-11T11:14:12.442Z,100730.11
2019-04-11T11:16:51.000Z,100730.61
2019-04-11T11:19:57.202Z,100721.02
2019-04-11T11:22:15.060Z,100725.59
2019-04-11T11:25:04.317Z,100722.77
2019-04-11T11:27:37.257Z,100717.25
2019-04-11T11:30:10.859Z,100723.20
2019-04-11T11:32:43.300Z,100721.45
2019-04-11T11:35:16.414Z,100722.25
2019-04-11T11:37:49.309Z,100728.43
2019-04-11T11:40:27.886Z,100737.81
2019-04-11T11:43:12.417Z,100735.52
2019-04-11T11:46:03.026Z,100742.22
2019-04-11T11:48:39.689Z,100731.55
2019-04-11T11:51:29.604Z,100742.72
2019-04-11T11:54:00.469Z,100739.28
2019-04-11T11:56:34.020Z,100736.89
2019-04-11T11:59:13.353Z,100742.76
2019-04-11T12:01:51.424Z,100740.95
2019-04-11T12:04:46.380Z,100731.70
2019-04-11T12:07:19.437Z,100729.25
2019-04-11T12:09:55.253Z,100725.70
2019-04-11T12:12:35.872Z,100721.39
2019-04-11T12:15:28.039Z,100730.80
2019-04-11T12:18:18.472Z,100728.64
2019-04-11T12:20:57.369Z,100729.96
2019-04-11T12:23:43.666Z,100727.19
2019-04-11T12:26:05.946Z,100725.09
2019-04-11T12:28:43.655Z,100722.38
2019-04-11T12:31:15.566Z,100722.11
2019-04-11T12:33:52.175Z,100721.40
2019-04-11T12:36:26.373Z,100718.41
2019-04-11T12:38:57.883Z,100718.91
2019-04-11T12:41:39.535Z,100716.26
2019-04-11T12:44:29.639Z,100716.70
2019-04-11T12:47:07.549Z,100707.36
2019-04-11T12:49:37.406Z,100705.16
2019-04-11T12:52:13.329Z,100708.72
2019-04-11T12:54:46.334Z,100712.72
2019-04-11T12:57:35.498Z,100700.31
2019-04-11T13:00:17.692Z,100705.17
2019-04-11T13:03:00.665Z,100704.70
2019-04-11T13:05:37.591Z,100694.95
2019-04-11T13:08:28.258Z,100691.81
2019-04-11T13:11:00.226Z,100699.32
2019-04-11T13:13:33.159Z,100693.88
2019-04-11T13:16:12.971Z,100697.17
2019-04-11T13:19:02.346Z,100696.25
2019-04-11T13:21:41.097Z,100689.20
2019-04-11T13:24:29.275Z,100684.14
2019-04-11T13:27:14.165Z,100683.53
2019-04-11T13:29:46.284Z,100677.39
2019-04-11T13:32:28.581Z,100685.35
2019-04-11T13:35:17.667Z,100677.84
2019-04-11T13:38:07.196Z,100682.80
2019-04-11T13:40:43.198Z,100676.72
2019-04-11T13:43:33.165Z,100676.67
2019-04-11T13:46:22.634Z,100672.64
2019-04-11T13:49:05.827Z,100673.10
2019-04-11T13:51:36.887Z,100662.76
2019-04-11T13:54:26.045Z,100672.88
2019-04-11T13:57:15.101Z,100665.46
2019-04-11T14:00:04.404Z,100666.00
2019-04-11T14:02:51.040Z,100673.52
2019-04-11T14:05:19.480Z,100670.30
2019-04-11T14:07:53.078Z,100670.06
2019-04-11T14:10:25.471Z,100664.02
2019-04-11T14:13:01.047Z,100664.92
2019-04-11T14:15:36.471Z,100661.66
2019-04-11T14:18:12.346Z,100653.45
2019-04-11T14:20:48.615Z,100653.82
2019-04-11T14:23:47.184Z,100651.31
2019-04-11T14:26:23.130Z,100646.92
2019-04-11T14:28:55.892Z,100646.98
2019-04-11T14:31:29.073Z,100654.34
2019-04-11T14:34:02.344Z,100650.97
2019-04-11T14:36:51.709Z,100649.12
2019-04-11T14:39:24.809Z,100639.55
2019-04-11T14:42:00.364Z,100645.34
2019-04-11T14:44:33.360Z,100660.32
2019-04-11T14:47:22.597Z,100655.05
2019-04-11T14:49:58.869Z,100650.97
2019-04-11T14:52:34.473Z,100657.36
2019-04-11T14:55:08.627Z,100653.09
2019-04-11T14:57:41.682Z,100653.62
2019-04-11T15:00:19.323Z,100652.77
2019-04-11T15:02:57.655Z,100657.31
2019-04-11T15:05:30.643Z,100652.45
2019-04-11T15:08:01.886Z,100645.36
2019-04-11T15:10:34.901Z,100648.66
2019-04-11T15:13:08.050Z,100647.55
2019-04-11T15:15:41.032Z,100647.02
2019-04-11T15:18:13.055Z,100649.24
2019-04-11T15:20:54.816Z,100642.14
2019-04-11T15:23:20.790Z,100652.28
2019-04-11T15:25:55.260Z,100643.41
2019-04-11T15:28:28.431Z,100646.63
2019-04-11T15:31:14.318Z,100660.25
2019-04-11T15:33:54.110Z,100639.47
2019-04-11T15:36:28.697Z,100640.77
2019-04-11T15:39:05.394Z,100640.51
2019-04-11T15:41:41.042Z,100640.33
2019-04-11T15:44:30.313Z,100642.77
2019-04-11T15:47:04.034Z,100647.66
2019-04-11T15:49:46.502Z,100644.25
2019-04-11T15:52:18.343Z,100638.87
2019-04-11T15:54:49.415Z,100646.80
2019-04-11T15:57:22.432Z,100649.06
2019-04-11T15:59:56.377Z,100650.76
2019-04-11T16:02:30.690Z,100644.36
2019-04-11T16:05:02.739Z,100640.89
2019-04-11T16:07:52.361Z,100650.30
2019-04-11T16:10:25.325Z,100641.10
2019-04-11T16:13:10.097Z,100654.92
2019-04-11T16:15:45.773Z,100651.30
2019-04-11T16:18:21.871Z,100650.45
2019-04-11T16:20:54.994Z,100658.10
2019-04-11T16:23:33.783Z,100655.48
2019-04-11T16:26:07.020Z,100652.38
2019-04-11T16:28:59.110Z,100659.92
2019-04-11T16:31:35.179Z,100647.97
2019-04-11T16:34:08.255Z,100660.84
2019-04-11T16:36:41.289Z,100661.28
2019-04-11T16:39:26.086Z,100659.52
2019-04-11T16:41:59.621Z,100659.03
2019-04-11T16:44:32.716Z,100661.25
2019-04-11T16:47:23.733Z,100670.14
2019-04-11T16:49:56.978Z,100671.95
2019-04-11T16:52:28.942Z,100667.97
2019-04-11T16:55:00.291Z,100674.61
2019-04-11T16:57:31.782Z,100671.94
2019-04-11T17:00:05.228Z,100667.94
2019-04-11T17:02:38.196Z,100665.70
2019-04-11T17:05:10.811Z,100668.36
2019-04-11T17:07:46.520Z,100673.16
2019-04-11T17:10:19.553Z,100671.34
2019-04-11T17:12:53.853Z,100677.53
2019-04-11T17:15:24.614Z,100677.00
2019-04-11T17:17:55.974Z,100684.11
2019-04-11T17:20:27.328Z,100687.58
2019-04-11T17:22:58.827Z,100688.88
2019-04-11T17:25:30.168Z,100686.05
2019-04-11T17:28:01.528Z,100698.48
2019-04-11T17:30:32.906Z,100699.67
2019-04-11T17:33:04.504Z,100693.81
2019-04-11T17:35:36.299Z,100699.19
2019-04-11T17:38:08.110Z,100704.27
2019-04-11T17:40:40.177Z,100698.35
2019-04-11T17:43:13.761Z,100702.28
2019-04-11T17:45:44.752Z,100709.27
2019-04-11T17:48:16.110Z,100719.31
2019-04-11T17:50:47.629Z,100718.15
2019-04-11T17:53:19.048Z,100717.54
2019-04-11T17:55:52.002Z,100730.55
2019-04-11T17:58:27.013Z,100724.69
2019-04-11T18:01:05.127Z,100721.05
2019-04-11T18:03:34.999Z,100727.95
2019-04-11T18:06:07.118Z,100728.59
2019-04-11T18:08:38.999Z,100728.50
2019-04-11T18:11:10.322Z,100731.47
2019-04-11T18:13:41.625Z,100736.94
2019-04-11T18:16:12.948Z,100742.11
2019-04-11T18:18:44.486Z,100745.08
2019-04-11T18:21:15.791Z,100742.34
2019-04-11T18:23:50.121Z,100746.61
2019-04-11T18:26:22.013Z,100749.11
2019-04-11T18:28:53.427Z,100756.07
2019-04-11T18:31:25.932Z,100758.14
2019-04-11T18:33:57.266Z,100755.82
2019-04-11T18:36:31.745Z,100759.64
2019-04-11T18:39:05.958Z,100759.90
2019-04-11T18:41:37.841Z,100764.94
2019-04-11T18:44:09.553Z,100766.17
2019-04-11T18:46:41.993Z,100772.34
2019-04-11T18:49:15.157Z,100778.13
2019-04-11T18:51:46.547Z,100777.48
2019-04-11T18:54:19.172Z,100783.48
2019-04-11T18:56:52.335Z,100787.15
2019-04-11T18:59:23.719Z,100785.27
2019-04-11T19:01:55.180Z,100793.53
2019-04-11T19:04:32.164Z,100797.67
2019-04-11T19:06:59.851Z,100797.00
2019-04-11T19:09:31.896Z,100798.71
2019-04-11T19:12:04.788Z,100806.40
2019-04-11T19:14:36.985Z,100805.97
2019-04-11T19:17:08.464Z,100808.29
2019-04-11T19:19:41.365Z,100812.87
2019-04-11T19:22:13.478Z,100817.11
2019-04-11T19:24:45.466Z,100814.72
2019-04-11T19:27:20.296Z,100813.39
2019-04-11T19:29:49.979Z,100816.34
2019-04-11T19:32:24.462Z,100817.08
2019-04-11T19:34:55.926Z,100821.80
2019-04-11T19:37:27.348Z,100823.78
2019-04-11T19:40:01.641Z,100819.13
2019-04-11T19:42:32.949Z,100818.47
2019-04-11T19:45:07.033Z,100822.52
2019-04-11T19:47:38.496Z,100819.75
2019-04-11T19:50:10.197Z,100823.83
2019-04-11T19:52:45.710Z,100822.56
2019-04-11T19:55:21.051Z,100824.30
2019-04-11T19:57:52.485Z,100825.95
2019-04-11T20:00:23.978Z,100829.90
2019-04-11T20:02:55.295Z,100827.38
2019-04-11T20:05:26.685Z,100829.59
2019-04-11T20:07:57.966Z,100823.97
2019-04-11T20:10:30.778Z,100830.32
2019-04-11T20:13:02.685Z,100830.28
2019-04-11T20:15:37.191Z,100829.91
2019-04-11T20:18:07.931Z,100823.95
2019-04-11T20:20:39.430Z,100830.14
2019-04-11T20:23:11.547Z,100826.20
2019-04-11T20:25:45.785Z,100827.80
2019-04-11T20:28:16.118Z,100821.92
2019-04-11T20:30:49.572Z,100824.51
2019-04-11T20:33:27.788Z,100825.64
2019-04-11T20:35:59.343Z,100824.08
2019-04-11T20:38:30.560Z,100824.16
2019-04-11T20:41:01.855Z,100824.80
2019-04-11T20:43:33.155Z,100824.53
2019-04-11T20:46:04.575Z,100826.81
2019-04-11T20:48:35.945Z,100834.95
2019-04-11T20:51:07.281Z,100835.70
2019-04-11T20:53:38.477Z,100832.64
2019-04-11T20:56:10.604Z,100835.80
2019-04-11T20:58:42.332Z,100836.48
2019-04-11T21:01:13.679Z,100840.16
2019-04-11T21:03:44.935Z,100843.20
2019-04-11T21:06:16.260Z,100844.37
2019-04-11T21:08:47.574Z,100848.48
2019-04-11T21:11:18.915Z,100846.06
2019-04-11T21:13:50.152Z,100843.75
2019-04-11T21:16:22.389Z,100846.58
2019-04-11T21:18:54.479Z,100846.52
2019-04-11T21:21:26.742Z,100845.27
2019-04-11T21:24:00.353Z,100844.32
2019-04-11T21:26:30.955Z,100849.66
2019-04-11T21:29:02.239Z,100847.34
2019-04-11T21:31:33.498Z,100857.59
2019-04-11T21:34:04.861Z,100859.57
2019-04-11T21:36:36.168Z,100859.72
2019-04-11T21:39:08.630Z,100863.26
2019-04-11T21:41:41.158Z,100863.39
2019-04-11T21:44:12.380Z,100865.17
2019-04-11T21:46:43.722Z,100871.05
2019-04-11T21:49:14.942Z,100872.61
2019-04-11T21:51:46.210Z,100878.63
2019-04-11T21:54:17.451Z,100880.60
2019-04-11T21:56:49.722Z,100881.31
2019-04-11T21:59:21.621Z,100883.41
2019-04-11T22:01:54.137Z,100886.03
2019-04-11T22:04:27.468Z,100883.70
2019-04-11T22:07:00.919Z,100891.81
2019-04-11T22:09:33.079Z,100891.51
2019-04-11T22:12:07.676Z,100887.64
2019-04-11T22:14:41.321Z,100894.54
2019-04-11T22:17:14.883Z,100896.33
2019-04-11T22:19:46.421Z,100890.07
2019-04-11T22:22:17.828Z,100896.14
2019-04-11T22:24:49.138Z,100890.78
2019-04-11T22:27:22.309Z,100894.53
2019-04-11T22:29:55.189Z,100896.90
2019-04-11T22:32:27.420Z,100896.90
2019-04-11T22:34:59.091Z,100903.39
2019-04-11T22:37:31.216Z,100900.11
2019-04-11T22:40:02.784Z,100898.13
2019-04-11T22:42:35.332Z,100898.48
2019-04-11T22:45:08.480Z,100907.45
2019-04-11T22:47:40.051Z,100902.28
2019-04-11T22:50:11.535Z,100909.82
2019-04-11T22:52:42.872Z,100903.62
2019-04-11T22:55:14.296Z,100909.34
2019-04-11T22:57:45.648Z,100912.66
2019-04-11T23:00:17.581Z,100914.61
2019-04-11T23:02:56.617Z,100911.67
2019-04-11T23:05:29.485Z,100912.08
2019-04-11T23:08:02.769Z,100916.70
2019-04-11T23:10:33.745Z,100919.32
2019-04-11T23:13:05.030Z,100919.73
2019-04-11T23:15:36.403Z,100925.32
2019-04-11T23:18:08.470Z,100924.16
2019-04-11T23:20:43.663Z,100921.70
2019-04-11T23:23:13.406Z,100924.42
2019-04-11T23:25:45.278Z,100924.42
2019-04-11T23:28:16.584Z,100926.84
2019-04-11T23:30:50.363Z,100924.97
2019-04-11T23:33:21.528Z,100926.36
2019-04-11T23:35:53.373Z,100924.84
2019-04-11T23:38:24.657Z,100934.28
2019-04-11T23:40:55.889Z,100934.63
2019-04-11T23:43:27.192Z,100934.08
2019-04-11T23:45:58.401Z,100935.73
2019-04-11T23:48:29.663Z,100935.18
2019-04-11T23:51:01.951Z,100930.30
2019-04-11T23:53:34.394Z,100930.23
2019-04-11T23:56:05.792Z,100927.68
2019-04-11T23:58:37.161Z,100933.66
